Stillwater, OK (74075)

21:43 CST le 19 décembre 2014 (GMT -0600)
Stillwater, East Side | Change Station
CLOSE
Current Station
Stations météorologiques personnelles
Location: Stillwater, OK
Altitude: 935 ft
Stations météo à proximité

Alt. 935 ft 36.12 °N, 97.04 °W | Updated 3 seconds ago

Overcast
Couvert
39.7 ° F
Paraît 40 ° F
N
0.0
Vent Variable Vent de NNO
Gusts 11.0 mph

Aujourd'hui
Haut(e) -- | Bas -- ° F
--% Risque de précip.
Hier
Haut(e) -- | Bas -- ° F
Precip. -- pouce
7:34 AM 5:16 PM
Lune descendante, 5% visible
Pression 30.23 pouce
Visibilité 10.0 Miles terrestres
Nuages Couvert 2900 ft
Refroidissement éolien 40 ° F
Point de rosée 36 ° F
Humidité 85%
Précipitations 0.00 pouce
Profondeur de la couche neigeuse Non disponible.
UV 0.0 sur 12
Pollen 6.10 sur 12
Qualité de l'air Non disponible.
Flu Activity Non disponible.
METAR KSWO 200253Z AUTO 00000KT 10SM OVC029 04/01 A3022 RMK AO2 SLP236 T00440011 53003

More Conditions Fewer Conditions

Pression 30.23 pouce
Visibilité 10.0 Miles terrestres
Nuages Couvert 2900 ft
Refroidissement éolien 40 ° F
Point de rosée 36 ° F
Humidité 85%
Précipitations 0.00 pouce
Profondeur de la couche neigeuse Non disponible.
UV 0.0 sur 12
Pollen 6.10 sur 12
Qualité de l'air Non disponible.
Flu Activity Non disponible.
METAR KSWO 200253Z AUTO 00000KT 10SM OVC029 04/01 A3022 RMK AO2 SLP236 T00440011 53003

More Conditions Fewer Conditions

10-Day Weather Forecast

Almanac

Astronomie

Dec. 19, 2014 Lever Coucher
Temps réel
Crépuscule civil
Crépuscule nautique
Crépuscule astronomique
Lune
Durée de lumière visible
Longueur du jour
Tomorrow will be .
, % of the Moon is Illuminated

Extrêmes aujourd'hui

State Highs State Lows

Community

WunderPhotos

Upload Photos

1,779,126 Photos téléchargées !

WunderBlogs® & News

Nearby

Qualité de l'air

  Qualité de l'air Indice de la qualité de l'air Polluant
Not available.

Épaisseur de neige

Station Depth Altitude

Activité sismique

Ville Distance Mag. Time & Date
Minimum magnitude displayed is 2.5.

Températures des eaux côtières

Lieu Température

Stations météo à proximité